Terminal Aerodrome Forecast
Issued by NWS

Home | Current Version | Previous Version | Graphics & Text | Print | Product List | Glossary On
Versions: 1 2 3 4 5 6 7 8 9 10 11 12 13 14 15 16 17 18 19 20 21 22 23 24 25 26 27
000
FTUS43 KABR 231700
TAFATY
TAF
KATY 231740Z 2318/2418 13014G23KT P6SM SCT250
     FM232100 13015G24KT P6SM SCT050
     FM240600 15014KT P6SM VCSH BKN070
     FM241400 15010KT P6SM OVC015=

USA.gov is the U.S. government's official web portal to all federal, state and local government web resources and services.